Time;durP1;ratioP1;P1;durP2;ratioP2;P2;SDS_P1;SDS_P2;PMS_P1;PMS_P2;Temp;Humidity;BMP_temperature;BMP_pressure;BME280_temperature;BME280_humidity;BME280_pressure;Samples;Min_cycle;Max_cycle;Signal;HPM_P1;HPM_P2
2023/03/24 00:00:33;;;;;;;10.30;7.57;;;;;;;19.57;55.22;101068.72;5056888;28;20048;-57
2023/03/24 00:03:01;;;;;;;9.20;7.13;;;;;;;19.56;54.79;101070.56;5056486;28;20045;-56
2023/03/24 00:05:29;;;;;;;8.63;7.13;;;;;;;19.54;54.48;101075.22;5056579;28;20049;-52
2023/03/24 00:08:01;;;;;;;10.55;6.90;;;;;;;19.55;54.45;101074.22;5056818;28;20049;-53
2023/03/24 00:10:33;;;;;;;9.30;6.93;;;;;;;19.53;54.46;101078.88;5056442;28;20387;-52
2023/03/24 00:13:01;;;;;;;10.88;7.20;;;;;;;19.52;54.34;101075.31;5056316;28;20056;-50
2023/03/24 00:15:30;;;;;;;10.40;7.90;;;;;;;19.53;54.33;101073.53;5061741;28;20486;-57
2023/03/24 00:17:57;;;;;;;11.18;7.15;;;;;;;19.53;54.47;101078.88;5076218;28;20048;-55
2023/03/24 00:20:25;;;;;;;9.25;6.57;;;;;;;19.52;54.36;101077.16;5075124;28;20065;-56
2023/03/24 00:22:57;;;;;;;11.63;7.70;;;;;;;19.51;54.27;101080.84;5076518;28;20463;-57
2023/03/24 00:25:28;;;;;;;8.07;7.22;;;;;;;19.51;54.47;101075.47;5076033;28;20051;-52
2023/03/24 00:27:56;;;;;;;9.02;7.18;;;;;;;19.50;54.39;101071.09;5075843;28;20056;-51
2023/03/24 00:30:25;;;;;;;9.50;7.53;;;;;;;19.50;54.34;101077.31;5076042;28;20065;-52
2023/03/24 00:32:52;;;;;;;8.93;7.35;;;;;;;19.50;54.11;101073.75;5075870;28;20041;-54
2023/03/24 00:35:20;;;;;;;10.52;8.00;;;;;;;19.50;54.21;101079.13;5075890;28;20052;-56
2023/03/24 00:37:50;;;;;;;10.80;7.45;;;;;;;19.49;54.58;101072.06;5076281;28;20063;-57
2023/03/24 00:40:20;;;;;;;7.97;6.95;;;;;;;19.49;54.47;101072.06;5075847;28;20540;-56
2023/03/24 00:42:49;;;;;;;9.20;7.00;;;;;;;19.48;54.30;101073.88;5074704;28;20056;-57
2023/03/24 00:45:19;;;;;;;9.68;6.95;;;;;;;19.49;54.44;101072.91;5076116;28;20044;-57
2023/03/24 00:47:58;;;;;;;8.85;7.15;;;;;;;19.49;54.34;101077.44;5064042;28;20040;-56
2023/03/24 00:50:25;;;;;;;8.73;7.03;;;;;;;19.48;54.38;101073.03;5053851;28;20072;-57
2023/03/24 00:52:56;;;;;;;9.85;7.30;;;;;;;19.48;54.38;101075.72;5054157;28;20052;-56
2023/03/24 00:55:27;;;;;;;10.70;6.78;;;;;;;19.47;54.22;101068.66;5055477;28;20048;-57
2023/03/24 00:57:55;;;;;;;9.98;7.28;;;;;;;19.46;54.16;101070.47;5055357;28;20049;-56
2023/03/24 01:00:25;;;;;;;9.75;7.18;;;;;;;19.48;54.08;101075.72;5055491;28;20065;-56
2023/03/24 01:02:56;;;;;;;10.13;7.20;;;;;;;19.46;53.98;101070.47;5055200;28;20045;-56
2023/03/24 01:05:29;;;;;;;9.27;6.97;;;;;;;19.46;53.93;101062.41;5055105;28;20045;-52
2023/03/24 01:08:02;;;;;;;9.30;6.53;;;;;;;19.47;54.11;101074.00;5053528;28;20048;-53
2023/03/24 01:10:34;;;;;;;10.00;7.07;;;;;;;19.45;53.96;101066.09;5055611;28;20037;-53
2023/03/24 01:13:02;;;;;;;8.70;7.30;;;;;;;19.46;53.93;101062.41;5055115;28;20037;-48
2023/03/24 01:15:32;;;;;;;9.27;6.72;;;;;;;19.45;53.96;101058.03;5055302;28;20041;-49
2023/03/24 01:18:03;;;;;;;9.65;6.85;;;;;;;19.45;53.92;101063.41;5055241;28;20057;-54
2023/03/24 01:20:35;;;;;;;8.73;6.88;;;;;;;19.46;53.78;101061.56;5055478;28;20041;-51
2023/03/24 01:23:06;;;;;;;7.82;6.97;;;;;;;19.46;53.85;101064.25;5054907;28;20049;-52
2023/03/24 01:25:36;;;;;;;8.52;6.45;;;;;;;19.46;53.81;101059.75;5054968;28;20044;-57
2023/03/24 01:28:04;;;;;;;11.15;6.70;;;;;;;19.45;53.71;101059.88;5055042;28;20067;-57
2023/03/24 01:30:32;;;;;;;10.15;7.03;;;;;;;19.45;53.57;101057.19;5061479;28;20056;-56
2023/03/24 01:32:59;;;;;;;10.77;6.90;;;;;;;19.45;53.73;101057.19;5074849;28;20059;-57
2023/03/24 01:35:27;;;;;;;10.27;6.75;;;;;;;19.44;53.40;101056.31;5075219;28;20055;-52
2023/03/24 01:37:57;;;;;;;11.27;7.18;;;;;;;19.45;53.68;101049.13;5074608;28;20048;-50
2023/03/24 01:40:31;;;;;;;9.77;6.25;;;;;;;19.43;53.51;101056.44;5073586;28;20052;-50
2023/03/24 01:42:59;;;;;;;7.68;6.45;;;;;;;19.44;53.52;101052.78;5074927;28;20048;-52
2023/03/24 01:45:44;;;;;;;11.43;7.35;;;;;;;19.44;53.63;101047.41;5074696;28;20048;-52
2023/03/24 01:48:19;;;;;;;9.77;6.40;;;;;;;19.44;53.49;101047.41;5068184;28;20053;-54
2023/03/24 01:51:18;;;;;;;10.38;6.43;;;;;;;19.43;53.52;101048.41;5052120;28;20060;-49
2023/03/24 01:53:54;;;;;;;8.40;6.30;;;;;;;19.44;53.40;101052.78;5054671;28;20056;-53
2023/03/24 01:56:23;;;;;;;9.02;6.35;;;;;;;19.43;53.33;101045.72;5054655;28;20055;-56
2023/03/24 01:58:55;;;;;;;9.35;6.18;;;;;;;19.43;53.34;101045.72;5052609;28;20494;-56
2023/03/24 02:01:51;;;;;;;9.02;5.93;;;;;;;19.43;53.27;101053.75;5053404;28;20048;-56
2023/03/24 02:04:39;;;;;;;10.25;6.53;;;;;;;19.43;53.24;101045.72;5053317;28;20064;-56
2023/03/24 02:07:19;;;;;;;8.70;6.00;;;;;;;19.42;53.22;101049.38;5052616;28;20060;-55
2023/03/24 02:09:47;;;;;;;8.50;6.60;;;;;;;19.42;53.25;101044.88;5053974;28;20053;-56
2023/03/24 02:12:15;;;;;;;10.05;7.00;;;;;;;19.42;53.22;101046.69;5054202;28;20056;-56
2023/03/24 02:14:43;;;;;;;10.57;6.05;;;;;;;19.41;53.23;101043.16;5052650;28;20052;-50
2023/03/24 02:17:32;;;;;;;9.73;6.88;;;;;;;19.42;53.12;101035.97;5070970;28;20040;-52
2023/03/24 02:20:11;;;;;;;7.47;6.07;;;;;;;19.41;53.17;101039.63;5072831;28;20415;-52
2023/03/24 02:23:16;;;;;;;9.00;6.03;;;;;;;19.42;52.98;101035.97;5072675;28;20059;-53
2023/03/24 02:26:08;;;;;;;9.45;6.20;;;;;;;19.41;53.00;101042.31;5072433;28;20510;-50
2023/03/24 02:28:57;;;;;;;9.90;6.50;;;;;;;19.41;53.08;101039.63;5073039;28;20462;-53
2023/03/24 02:31:43;;;;;;;9.90;6.05;;;;;;;19.41;53.05;101043.16;5073015;28;20047;-52
2023/03/24 02:34:27;;;;;;;7.68;6.38;;;;;;;19.41;52.97;101040.47;5073877;28;20041;-57
2023/03/24 02:37:12;;;;;;;9.02;6.18;;;;;;;19.41;52.96;101039.63;5072590;28;20056;-56
2023/03/24 02:39:48;;;;;;;8.15;6.13;;;;;;;19.41;53.03;101039.63;5072716;28;20386;-55
2023/03/24 02:42:32;;;;;;;7.38;5.90;;;;;;;19.41;52.91;101032.44;5072762;28;20048;-56
2023/03/24 02:45:07;;;;;;;9.40;5.68;;;;;;;19.41;52.79;101031.56;5072508;28;20058;-53
2023/03/24 02:47:57;;;;;;;9.80;6.32;;;;;;;19.40;52.78;101021.78;5072482;28;20057;-53
2023/03/24 02:50:41;;;;;;;9.77;6.22;;;;;;;19.40;52.77;101025.31;5056474;28;20049;-50
2023/03/24 02:53:39;;;;;;;10.48;6.47;;;;;;;19.40;52.68;101021.78;5053577;28;20041;-52
2023/03/24 02:56:51;;;;;;;8.52;6.10;;;;;;;19.40;52.60;101021.78;5051888;28;20053;-54
2023/03/24 02:59:56;;;;;;;9.32;6.18;;;;;;;19.39;52.71;101020.94;5051976;28;20049;-53
2023/03/24 03:03:00;;;;;;;8.25;6.28;;;;;;;19.39;52.81;101023.63;5062028;28;20052;-50
2023/03/24 03:05:38;;;;;;;8.07;5.82;;;;;;;19.40;52.85;101019.13;5052170;28;20503;-51
2023/03/24 03:08:11;;;;;;;10.63;5.90;;;;;;;19.39;52.71;101028.16;5052093;28;20503;-48
2023/03/24 03:10:45;;;;;;;7.40;5.97;;;;;;;19.40;52.51;101024.47;5051794;28;20411;-49
2023/03/24 03:13:26;;;;;;;8.50;6.10;;;;;;;19.39;52.69;101026.31;5052997;28;20056;-52
2023/03/24 03:15:57;;;;;;;9.45;7.05;;;;;;;19.39;52.62;101022.78;5051752;28;20064;-51
2023/03/24 03:18:49;;;;;;;9.85;6.43;;;;;;;19.39;52.54;101028.16;5051692;28;20049;-52
2023/03/24 03:21:22;;;;;;;7.30;5.78;;;;;;;19.38;52.50;101024.63;5052877;28;20068;-51
2023/03/24 03:24:08;;;;;;;7.40;5.82;;;;;;;19.39;52.59;101023.63;5052981;28;20056;-51
2023/03/24 03:26:36;;;;;;;9.15;6.45;;;;;;;19.39;52.39;101029.00;5052678;28;20049;-53
2023/03/24 03:29:10;;;;;;;8.35;6.30;;;;;;;19.39;52.47;101022.78;5055398;28;20052;-52
2023/03/24 03:31:42;;;;;;;8.13;5.90;;;;;;;19.37;52.54;101025.59;5066049;28;20378;-51
2023/03/24 03:34:16;;;;;;;10.73;6.40;;;;;;;19.37;52.42;101020.25;5076454;28;20088;-50
2023/03/24 03:36:52;;;;;;;7.93;5.68;;;;;;;19.39;52.47;101025.47;5075911;28;20639;-50
2023/03/24 03:39:28;;;;;;;6.78;5.28;;;;;;;19.39;52.42;101030.84;5076798;28;20064;-52
2023/03/24 03:42:00;;;;;;;9.05;5.45;;;;;;;19.39;52.52;101026.31;5075788;28;20064;-50
2023/03/24 03:44:28;;;;;;;9.15;6.03;;;;;;;19.40;52.44;101019.13;5075807;28;20048;-49
2023/03/24 03:46:55;;;;;;;7.80;5.72;;;;;;;19.40;52.21;101019.97;5076129;28;20055;-49
2023/03/24 03:49:33;;;;;;;10.48;6.28;;;;;;;19.40;52.20;101016.44;5075296;28;20060;-52
2023/03/24 03:52:01;;;;;;;10.25;5.80;;;;;;;19.40;52.28;101022.66;5053835;28;20044;-53
2023/03/24 03:54:30;;;;;;;8.13;5.40;;;;;;;19.41;52.07;101023.53;5056116;28;20071;-56
2023/03/24 03:56:58;;;;;;;8.27;6.15;;;;;;;19.40;52.23;101017.28;5055233;28;20057;-57
2023/03/24 03:59:34;;;;;;;6.22;5.15;;;;;;;19.40;52.18;101019.97;5055218;28;20048;-56
2023/03/24 04:02:09;;;;;;;5.32;4.70;;;;;;;19.40;52.35;101013.75;5055090;28;20057;-56
2023/03/24 04:05:13;;;;;;;6.63;5.20;;;;;;;19.39;52.28;101015.56;5055553;28;20053;-56
2023/03/24 04:08:03;;;;;;;8.32;5.40;;;;;;;19.39;52.34;101010.22;5052252;28;20049;-56
2023/03/24 04:11:17;;;;;;;8.05;5.53;;;;;;;19.39;52.06;101012.88;5075029;28;20164;-56
2023/03/24 04:14:11;;;;;;;6.32;5.05;;;;;;;19.39;51.98;101018.25;5055984;28;20064;-51
2023/03/24 04:16:53;;;;;;;10.05;5.63;;;;;;;19.40;51.96;101022.66;5062646;28;20049;-52
2023/03/24 04:19:39;;;;;;;6.90;5.55;;;;;;;19.39;52.19;101014.72;5075207;28;20056;-53
2023/03/24 04:22:26;;;;;;;8.57;5.82;;;;;;;19.40;52.08;101019.13;5075442;28;20055;-50
2023/03/24 04:25:27;;;;;;;7.90;5.68;;;;;;;19.40;52.04;101013.75;5075261;28;20474;-56
2023/03/24 04:28:02;;;;;;;8.02;5.70;;;;;;;19.39;52.00;101006.69;5075855;28;20057;-56
2023/03/24 04:30:32;;;;;;;8.73;5.97;;;;;;;19.40;52.21;101005.69;5075808;28;20048;-56
2023/03/24 04:33:05;;;;;;;6.57;5.00;;;;;;;19.39;51.95;101001.31;5075300;28;20044;-57
2023/03/24 04:35:35;;;;;;;;;;;;;;;19.39;52.23;101006.69;5075283;28;20045;-56
2023/03/24 04:38:26;;;;;;;10.35;5.35;;;;;;;19.39;52.13;101001.31;5074879;28;19928;-56
2023/03/24 04:41:08;;;;;;;6.93;5.18;;;;;;;19.39;52.08;101007.53;5074010;28;20056;-56
2023/03/24 04:43:37;;;;;;;7.93;5.20;;;;;;;19.39;52.15;101002.16;5074739;28;20052;-56
2023/03/24 04:46:08;;;;;;;8.95;5.55;;;;;;;19.40;51.93;101009.22;5075712;28;20059;-55
2023/03/24 04:48:54;;;;;;;8.70;5.75;;;;;;;19.40;51.80;101005.69;5074787;28;20056;-56
2023/03/24 04:51:31;;;;;;;11.63;5.88;;;;;;;19.39;52.04;101002.16;5071009;28;20053;-55
2023/03/24 04:54:31;;;;;;;8.98;5.13;;;;;;;19.39;52.06;101004.00;5060657;28;20049;-56
2023/03/24 04:57:04;;;;;;;7.90;5.30;;;;;;;19.38;52.20;100994.25;5054908;28;20053;-56
2023/03/24 04:59:45;;;;;;;8.80;5.13;;;;;;;19.39;52.04;101002.16;5053941;28;20131;-57
2023/03/24 05:02:19;;;;;;;7.60;5.07;;;;;;;19.39;51.91;101001.31;5053786;28;20057;-56
2023/03/24 05:04:58;;;;;;;7.47;5.38;;;;;;;19.39;52.00;101001.31;5054492;28;20052;-53
2023/03/24 05:07:41;;;;;;;7.35;5.25;;;;;;;19.40;52.06;101000.31;5054418;28;20475;-51
2023/03/24 05:10:11;;;;;;;7.45;4.95;;;;;;;19.38;52.03;101005.81;5053938;28;20045;-51
2023/03/24 05:12:49;;;;;;;8.35;4.85;;;;;;;19.39;51.94;100995.94;5053645;28;20068;-52
2023/03/24 05:15:17;;;;;;;6.10;5.00;;;;;;;19.38;52.04;101003.16;5055481;28;20076;-56
2023/03/24 05:17:46;;;;;;;10.15;5.70;;;;;;;19.37;52.02;101004.13;5053362;28;20049;-56
2023/03/24 05:20:14;;;;;;;9.98;5.13;;;;;;;19.37;51.93;100998.75;5053709;28;20403;-57
2023/03/24 05:22:47;;;;;;;5.43;4.53;;;;;;;19.37;52.10;101003.28;5053668;28;20060;-57
2023/03/24 05:25:15;;;;;;;8.70;5.07;;;;;;;19.38;52.03;101007.66;5053259;28;20403;-57
2023/03/24 05:27:43;;;;;;;7.55;5.05;;;;;;;19.36;52.08;101004.25;5054670;28;20068;-56
2023/03/24 05:30:31;;;;;;;6.70;5.30;;;;;;;19.36;51.84;101007.78;5054550;28;20442;-57
2023/03/24 05:33:08;;;;;;;8.27;5.60;;;;;;;19.36;51.83;101009.59;5068772;28;20621;-57
2023/03/24 05:35:35;;;;;;;7.47;4.22;;;;;;;19.36;51.99;101006.94;5074723;28;20049;-53
2023/03/24 05:38:03;;;;;;;7.63;4.57;;;;;;;19.36;51.84;101005.09;5073598;28;20388;-50
2023/03/24 05:40:32;;;;;;;7.25;4.40;;;;;;;19.37;51.90;101014.03;5073860;28;20055;-52
2023/03/24 05:43:13;;;;;;;6.50;4.75;;;;;;;19.36;51.89;101007.78;5074581;28;20045;-52
2023/03/24 05:45:47;;;;;;;6.43;4.35;;;;;;;19.36;51.83;101013.13;5073153;28;20049;-56
2023/03/24 05:48:26;;;;;;;6.93;4.95;;;;;;;19.35;51.90;101014.13;5073482;28;20060;-56
2023/03/24 05:51:11;;;;;;;7.22;4.63;;;;;;;19.35;51.89;101006.06;5080834;28;20071;-55
2023/03/24 05:53:40;;;;;;;10.88;4.72;;;;;;;19.35;51.74;101015.97;5053832;28;20041;-56
2023/03/24 05:56:13;;;;;;;5.38;4.40;;;;;;;19.36;51.79;101028.41;5053112;28;20503;-56
2023/03/24 05:58:58;;;;;;;5.80;4.43;;;;;;;19.35;51.72;101019.50;5061151;28;20059;-56
2023/03/24 06:01:49;;;;;;;8.27;4.80;;;;;;;19.35;51.83;101022.19;5054437;28;20049;-56
2023/03/24 06:04:29;;;;;;;6.22;4.82;;;;;;;19.35;51.81;101026.69;5053407;28;20419;-55
2023/03/24 06:07:03;;;;;;;7.05;4.30;;;;;;;19.35;51.74;101024.88;5052512;28;20064;-55
2023/03/24 06:09:36;;;;;;;7.15;4.97;;;;;;;19.35;51.68;101035.59;5052721;28;20602;-56
2023/03/24 06:12:09;;;;;;;8.52;4.22;;;;;;;19.35;51.76;101035.59;5053253;28;20068;-56
2023/03/24 06:14:41;;;;;;;7.65;4.80;;;;;;;19.36;51.44;101040.00;5052349;28;20067;-56
2023/03/24 06:17:13;;;;;;;7.60;4.18;;;;;;;19.35;51.60;101046.34;5057743;28;20052;-56
2023/03/24 06:19:48;;;;;;;7.03;5.30;;;;;;;19.36;51.41;101045.34;5073170;28;20075;-57
2023/03/24 06:22:24;;;;;;;10.07;5.78;;;;;;;19.36;51.52;101045.34;5072959;28;20057;-56
2023/03/24 06:24:52;;;;;;;5.82;4.32;;;;;;;19.36;51.13;101042.66;5073863;28;20045;-49
2023/03/24 06:27:24;;;;;;;5.78;4.68;;;;;;;19.36;51.35;101045.34;5072531;28;20055;-50
2023/03/24 06:29:52;;;;;;;11.80;5.03;;;;;;;19.36;51.52;101040.00;5072936;28;20044;-50
2023/03/24 06:32:20;;;;;;;7.15;4.25;;;;;;;19.37;51.17;101046.22;5072251;28;20052;-50
2023/03/24 06:34:47;;;;;;;6.30;4.70;;;;;;;19.37;51.20;101046.22;5073530;28;20047;-49
2023/03/24 06:37:22;;;;;;;6.72;4.50;;;;;;;19.37;51.19;101047.09;5072776;28;20098;-54
2023/03/24 06:39:51;;;;;;;6.85;5.22;;;;;;;19.38;51.07;101054.16;5072426;28;20056;-49
2023/03/24 06:42:22;;;;;;;5.20;4.28;;;;;;;19.39;51.29;101041.56;5072466;28;20052;-49
2023/03/24 06:44:50;;;;;;;8.68;4.70;;;;;;;19.39;51.19;101049.63;5072035;28;20474;-56
2023/03/24 06:47:17;;;;;;;6.95;4.38;;;;;;;19.40;51.74;101054.00;5072268;28;20045;-56
2023/03/24 06:49:45;;;;;;;7.93;4.50;;;;;;;19.41;51.80;101053.06;5072309;28;20057;-55
2023/03/24 06:52:12;;;;;;;5.70;4.13;;;;;;;19.42;51.99;101042.19;5073308;28;20044;-56
2023/03/24 06:54:40;;;;;;;8.45;4.43;;;;;;;19.43;51.38;101049.25;5053486;28;20506;-51
2023/03/24 06:57:08;;;;;;;7.55;4.55;;;;;;;19.43;51.42;101045.72;5051818;28;20053;-50
2023/03/24 06:59:59;;;;;;;7.60;4.97;;;;;;;19.44;51.36;101039.34;5053467;28;20064;-49
2023/03/24 07:02:33;;;;;;;6.80;4.20;;;;;;;19.45;51.56;101038.41;5051932;28;20064;-54
2023/03/24 07:05:07;;;;;;;7.43;5.28;;;;;;;19.45;51.19;101049.97;5051116;28;20049;-53
2023/03/24 07:07:40;;;;;;;8.27;5.03;;;;;;;19.46;51.18;101042.78;5051551;28;20546;-54
2023/03/24 07:10:28;;;;;;;6.20;4.20;;;;;;;19.46;51.22;101046.31;5051858;28;20053;-53
2023/03/24 07:12:56;;;;;;;7.13;4.18;;;;;;;19.46;51.21;101050.84;5052987;28;20514;-52
2023/03/24 07:15:24;;;;;;;6.30;4.28;;;;;;;19.47;51.16;101041.78;5051269;28;20495;-53
2023/03/24 07:17:52;;;;;;;8.38;4.55;;;;;;;19.47;51.24;101049.84;5052376;28;20064;-51
2023/03/24 07:20:30;;;;;;;6.43;4.93;;;;;;;19.47;51.17;101053.38;5051609;28;20053;-52
2023/03/24 07:23:07;;;;;;;5.95;4.40;;;;;;;19.48;51.13;101059.59;5051314;28;20498;-53
2023/03/24 07:25:47;;;;;;;9.18;4.55;;;;;;;19.47;50.98;101048.00;5051758;28;20049;-53
2023/03/24 07:28:45;;;;;;;8.68;4.70;;;;;;;19.48;51.09;101044.34;5053114;28;20056;-53
2023/03/24 07:31:19;;;;;;;6.53;4.25;;;;;;;19.48;51.07;101051.53;5051443;28;20391;-53
2023/03/24 07:33:50;;;;;;;5.47;4.30;;;;;;;19.48;51.08;101046.19;5070092;28;20376;-50
2023/03/24 07:36:17;;;;;;;8.90;4.63;;;;;;;19.47;51.19;101037.28;5071802;28;20052;-56
2023/03/24 07:38:45;;;;;;;6.75;4.40;;;;;;;19.48;51.21;101032.75;5071735;28;20052;-56
2023/03/24 07:41:20;;;;;;;5.55;3.72;;;;;;;19.48;51.19;101025.53;5071672;28;20056;-55
2023/03/24 07:43:53;;;;;;;7.93;4.65;;;;;;;19.48;51.35;101041.66;5071984;28;20048;-56
2023/03/24 07:46:24;;;;;;;6.38;3.88;;;;;;;19.49;51.27;101038.00;5071872;28;20079;-56
2023/03/24 07:48:51;;;;;;;6.53;3.95;;;;;;;19.49;51.37;101045.22;5072092;28;20067;-56
2023/03/24 07:51:19;;;;;;;6.07;4.60;;;;;;;19.49;51.19;101051.44;5072878;28;20053;-56
2023/03/24 07:53:51;;;;;;;5.37;3.73;;;;;;;19.50;51.38;101049.59;5068713;28;20434;-56
2023/03/24 07:56:29;;;;;;;6.72;4.07;;;;;;;19.49;51.25;101059.50;5069387;28;20045;-56
2023/03/24 07:58:58;;;;;;;6.72;4.25;;;;;;;19.49;51.09;101051.44;5071437;28;20064;-57
2023/03/24 08:01:43;;;;;;;9.18;4.18;;;;;;;19.49;51.43;101046.06;5071632;28;20537;-56
2023/03/24 08:04:14;;;;;;;8.18;4.18;;;;;;;19.50;51.37;101046.91;5071811;28;20119;-48
2023/03/24 08:06:48;;;;;;;5.03;3.47;;;;;;;19.49;51.39;101040.69;5079411;28;20060;-49
2023/03/24 08:09:16;;;;;;;7.25;4.13;;;;;;;19.50;51.68;101044.22;5072828;28;20056;-52
2023/03/24 08:11:43;;;;;;;5.07;3.45;;;;;;;19.51;51.67;101045.94;5072034;28;20044;-53
2023/03/24 08:14:10;;;;;;;17.13;6.50;;;;;;;19.51;51.62;101037.88;5072339;28;20044;-50
2023/03/24 08:16:38;;;;;;;6.47;3.65;;;;;;;19.53;51.81;101043.97;5075019;28;20059;-51
2023/03/24 08:19:05;;;;;;;6.00;3.65;;;;;;;19.52;51.80;101053.00;5076511;28;20363;-52
2023/03/24 08:21:32;;;;;;;6.35;3.35;;;;;;;19.54;51.70;101043.00;5076479;28;20051;-52
2023/03/24 08:24:00;;;;;;;7.10;3.20;;;;;;;19.54;51.81;101042.16;5076483;28;20391;-57
2023/03/24 08:26:27;;;;;;;8.50;3.50;;;;;;;19.54;52.05;101048.38;5076302;28;20052;-56
2023/03/24 08:28:55;;;;;;;7.35;3.50;;;;;;;19.55;52.32;101043.84;5076376;28;20040;-56
2023/03/24 08:31:22;;;;;;;7.22;3.70;;;;;;;19.56;52.47;101056.28;5075695;28;20406;-56
2023/03/24 08:33:52;;;;;;;6.15;2.90;;;;;;;19.57;52.54;101053.50;5056088;28;20052;-57
2023/03/24 08:36:20;;;;;;;5.35;3.53;;;;;;;19.58;52.58;101044.44;5055935;28;20487;-56
2023/03/24 08:38:50;;;;;;;9.57;3.80;;;;;;;19.58;52.25;101049.81;5055987;28;20052;-57
2023/03/24 08:41:17;;;;;;;4.85;3.53;;;;;;;19.60;52.60;101066.63;5057317;28;20049;-57
2023/03/24 08:43:45;;;;;;;8.30;4.18;;;;;;;19.60;52.71;101069.31;5075630;28;20491;-57
2023/03/24 08:46:14;;;;;;;6.55;3.25;;;;;;;19.61;52.55;101071.09;5076021;28;20052;-57
2023/03/24 08:48:42;;;;;;;6.13;3.17;;;;;;;19.62;52.52;101072.78;5075924;28;20064;-56
2023/03/24 08:51:15;;;;;;;6.32;3.15;;;;;;;19.64;52.30;101069.94;5075651;28;20040;-57
2023/03/24 08:53:42;;;;;;;6.75;3.35;;;;;;;19.64;52.21;101065.44;5075442;28;20048;-56
2023/03/24 08:56:10;;;;;;;6.45;3.53;;;;;;;19.66;52.19;101074.22;5075383;28;20056;-48
2023/03/24 08:58:37;;;;;;;5.07;2.92;;;;;;;19.66;52.47;101068.84;5075554;28;20048;-51
2023/03/24 09:01:05;;;;;;;5.88;3.58;;;;;;;19.66;52.23;101066.16;5075394;28;20055;-49
2023/03/24 09:03:32;;;;;;;8.93;4.03;;;;;;;19.69;52.15;101067.75;5075404;28;20044;-50
2023/03/24 09:05:59;;;;;;;6.18;3.00;;;;;;;19.69;52.15;101057.88;5075180;28;20485;-52
2023/03/24 09:08:27;;;;;;;4.07;3.22;;;;;;;19.69;52.20;101057.88;5073663;28;20048;-49
2023/03/24 09:10:54;;;;;;;5.13;2.90;;;;;;;19.69;52.38;101057.00;5075269;28;20052;-49
2023/03/24 09:13:22;;;;;;;4.60;3.03;;;;;;;19.70;52.41;101064.09;5075176;28;20044;-52
2023/03/24 09:15:52;;;;;;;5.22;3.15;;;;;;;19.69;52.39;101063.25;5075362;28;20040;-55
2023/03/24 09:18:20;;;;;;;4.97;3.00;;;;;;;19.69;52.28;101062.38;5075174;28;20044;-56
2023/03/24 09:20:48;;;;;;;6.20;3.05;;;;;;;19.69;52.31;101063.25;5075187;28;20045;-56
2023/03/24 09:23:17;;;;;;;8.20;5.05;;;;;;;19.68;51.18;101055.28;5075389;28;20060;-56
2023/03/24 09:25:44;;;;;;;9.73;5.47;;;;;;;19.67;50.50;101065.19;5074567;28;20048;-51
2023/03/24 09:28:13;;;;;;;7.10;4.45;;;;;;;19.66;50.58;101063.50;5074952;28;20060;-51
2023/03/24 09:30:41;;;;;;;6.13;4.18;;;;;;;19.66;50.73;101047.38;5075039;28;20386;-52
2023/03/24 09:33:09;;;;;;;6.68;4.63;;;;;;;19.67;50.36;101056.28;5074953;28;20048;-51
2023/03/24 09:35:37;;;;;;;6.15;4.80;;;;;;;19.66;50.10;101047.38;5074876;28;20047;-56
2023/03/24 09:38:04;;;;;;;6.70;5.00;;;;;;;19.66;49.88;101041.16;5074934;28;20044;-57
2023/03/24 09:40:36;;;;;;;8.60;5.35;;;;;;;19.66;49.92;101041.16;5074758;28;20045;-58
2023/03/24 09:43:12;;;;;;;11.48;5.55;;;;;;;19.66;50.15;101041.16;5074906;28;20059;-58
2023/03/24 09:45:50;;;;;;;8.73;5.63;;;;;;;19.65;49.88;101037.63;5074830;28;20054;-57
2023/03/24 09:48:28;;;;;;;7.20;5.15;;;;;;;19.65;49.81;101040.31;5074620;28;20052;-58
2023/03/24 09:51:27;;;;;;;7.80;5.40;;;;;;;19.64;49.59;101035.88;5074528;28;20044;-58
2023/03/24 09:54:18;;;;;;;9.07;4.85;;;;;;;19.63;49.62;101038.72;5073925;28;20063;-50
2023/03/24 09:56:46;;;;;;;6.72;5.00;;;;;;;19.63;49.86;101044.09;5074814;28;20051;-57
2023/03/24 09:59:27;;;;;;;6.00;5.07;;;;;;;19.63;49.95;101053.00;5074405;28;20049;-58
2023/03/24 10:01:56;;;;;;;8.00;5.80;;;;;;;19.63;49.87;101063.72;5074516;28;20055;-57
2023/03/24 10:04:27;;;;;;;7.65;5.10;;;;;;;19.63;49.90;101065.56;5074240;28;20089;-50
2023/03/24 10:07:06;;;;;;;7.65;5.50;;;;;;;19.62;49.73;101072.78;5074238;28;20036;-49
2023/03/24 10:09:35;;;;;;;6.97;5.68;;;;;;;19.62;49.68;101072.78;5072950;28;20414;-50
2023/03/24 10:12:23;;;;;;;8.93;6.28;;;;;;;19.63;49.63;101068.25;5073089;28;20520;-48
2023/03/24 10:15:02;;;;;;;7.75;5.63;;;;;;;19.63;50.14;101047.63;5074249;28;20375;-57
2023/03/24 10:17:57;;;;;;;6.32;5.28;;;;;;;19.65;50.12;101051.03;5074057;28;20048;-57
2023/03/24 10:20:52;;;;;;;8.43;5.15;;;;;;;19.66;50.17;101043.84;5074196;28;20382;-57
2023/03/24 10:23:35;;;;;;;8.95;5.38;;;;;;;19.66;50.08;101047.38;5073135;28;20063;-57
2023/03/24 10:26:15;;;;;;;7.43;5.13;;;;;;;19.68;50.29;101048.06;5073796;28;20056;-52
2023/03/24 10:29:05;;;;;;;8.43;6.20;;;;;;;19.68;49.18;101037.34;5073278;28;20627;-50
2023/03/24 10:31:36;;;;;;;7.45;4.45;;;;;;;19.70;50.21;101048.81;5073640;28;20378;-49
2023/03/24 10:34:04;;;;;;;7.35;3.97;;;;;;;19.71;50.59;101044.28;5072520;28;20051;-57
2023/03/24 10:36:32;;;;;;;6.90;3.78;;;;;;;19.71;50.82;101036.22;5072229;28;20056;-56
2023/03/24 10:38:59;;;;;;;5.82;3.13;;;;;;;19.72;50.75;101044.16;5072925;28;20046;-57
2023/03/24 10:41:43;;;;;;;4.82;3.38;;;;;;;19.72;50.85;101035.25;5073514;28;20052;-56
2023/03/24 10:44:12;;;;;;;4.22;3.33;;;;;;;19.71;50.86;101038.91;5073375;28;20040;-50
2023/03/24 10:46:53;;;;;;;6.78;3.10;;;;;;;19.70;50.66;101032.69;5073366;28;20040;-50
2023/03/24 10:49:22;;;;;;;6.15;3.30;;;;;;;19.72;50.89;101025.34;5073241;28;20055;-50
2023/03/24 10:51:51;;;;;;;4.90;3.00;;;;;;;19.72;50.92;101025.34;5073205;28;20040;-49
2023/03/24 10:54:19;;;;;;;4.45;2.45;;;;;;;19.71;50.93;101018.28;5073273;28;20059;-56
2023/03/24 10:56:49;;;;;;;5.25;3.35;;;;;;;19.72;50.81;101028.03;5073288;28;20044;-56
2023/03/24 10:59:26;;;;;;;4.97;3.15;;;;;;;19.72;51.31;101019.97;5072916;28;20043;-57
2023/03/24 11:02:15;;;;;;;4.50;2.60;;;;;;;19.73;51.21;101020.84;5073224;28;20509;-56
2023/03/24 11:04:56;;;;;;;5.10;3.10;;;;;;;19.73;51.12;101019.03;5073351;28;20044;-50
2023/03/24 11:07:31;;;;;;;4.63;2.70;;;;;;;19.73;51.15;101013.66;5072466;28;20045;-50
2023/03/24 11:10:05;;;;;;;3.97;2.65;;;;;;;19.72;51.10;101001.19;5073145;28;20517;-51
2023/03/24 11:12:38;;;;;;;4.70;3.17;;;;;;;19.73;51.33;101015.47;5072650;28;20509;-48
2023/03/24 11:15:16;;;;;;;5.47;3.25;;;;;;;19.73;51.25;101002.06;5073314;28;20048;-56
2023/03/24 11:17:55;;;;;;;5.63;2.80;;;;;;;19.72;51.31;101001.19;5072854;28;20512;-57
2023/03/24 11:20:32;;;;;;;5.97;2.70;;;;;;;19.72;51.38;100994.94;5072982;28;20047;-56
2023/03/24 11:23:07;;;;;;;3.67;2.78;;;;;;;19.73;51.44;101004.75;5072881;28;20049;-56
2023/03/24 11:25:37;;;;;;;4.15;2.70;;;;;;;19.71;51.17;100991.41;5072725;28;20048;-51
2023/03/24 11:28:08;;;;;;;4.68;2.80;;;;;;;19.73;51.32;100988.63;5072480;28;20395;-50
2023/03/24 11:30:48;;;;;;;3.58;2.67;;;;;;;19.71;51.26;100988.72;5073024;28;20053;-53
2023/03/24 11:33:18;;;;;;;4.25;2.42;;;;;;;19.72;51.30;100992.25;5072743;28;20047;-50
2023/03/24 11:35:46;;;;;;;4.43;3.15;;;;;;;19.73;51.21;100991.31;5072768;28;20040;-57
2023/03/24 11:38:33;;;;;;;2.90;2.05;;;;;;;19.73;51.08;100989.47;5072830;28;20048;-57
2023/03/24 11:41:03;;;;;;;4.57;2.83;;;;;;;19.72;51.27;100982.38;5071499;28;20067;-57
2023/03/24 11:43:31;;;;;;;4.53;2.67;;;;;;;19.73;51.34;100983.25;5072740;28;20055;-57
2023/03/24 11:46:06;;;;;;;3.97;2.55;;;;;;;19.73;51.21;100975.19;5072543;28;20410;-50
2023/03/24 11:48:47;;;;;;;4.60;2.78;;;;;;;19.73;51.56;100970.66;5084357;28;20047;-54
2023/03/24 11:51:24;;;;;;;5.28;3.40;;;;;;;19.73;54.52;100957.22;5095295;28;20075;-53
2023/03/24 11:53:54;;;;;;;4.80;2.65;;;;;;;19.73;55.58;100956.38;5097001;28;20048;-54
2023/03/24 11:56:24;;;;;;;3.78;2.95;;;;;;;19.70;55.48;100952.13;5084688;28;20041;-58
2023/03/24 11:58:59;;;;;;;6.25;2.97;;;;;;;19.69;55.21;100954.94;5076705;28;20053;-58